sensor_id;sensor_type;location;lat;lon;timestamp;temperature;humidity
68804;SHT31;55787;52.678;13.314;2023-04-24T00:01:04;10.00;92.80
68804;SHT31;55787;52.678;13.314;2023-04-24T00:03:34;10.05;92.77
68804;SHT31;55787;52.678;13.314;2023-04-24T00:06:01;10.04;92.53
68804;SHT31;55787;52.678;13.314;2023-04-24T00:08:29;10.05;92.64
68804;SHT31;55787;52.678;13.314;2023-04-24T00:10:56;10.08;92.86
68804;SHT31;55787;52.678;13.314;2023-04-24T00:13:22;10.07;92.82
68804;SHT31;55787;52.678;13.314;2023-04-24T00:15:49;10.08;92.66
68804;SHT31;55787;52.678;13.314;2023-04-24T00:18:16;10.13;92.82
68804;SHT31;55787;52.678;13.314;2023-04-24T00:20:42;10.07;92.81
68804;SHT31;55787;52.678;13.314;2023-04-24T00:23:10;10.13;92.76
68804;SHT31;55787;52.678;13.314;2023-04-24T00:25:37;10.20;92.87
68804;SHT31;55787;52.678;13.314;2023-04-24T00:28:03;10.18;92.72
68804;SHT31;55787;52.678;13.314;2023-04-24T00:30:30;10.14;92.63
68804;SHT31;55787;52.678;13.314;2023-04-24T00:32:57;10.03;92.99
68804;SHT31;55787;52.678;13.314;2023-04-24T00:35:24;10.03;93.28
68804;SHT31;55787;52.678;13.314;2023-04-24T00:37:50;10.10;93.10
68804;SHT31;55787;52.678;13.314;2023-04-24T00:40:17;9.97;93.11
68804;SHT31;55787;52.678;13.314;2023-04-24T00:42:44;9.95;93.49
68804;SHT31;55787;52.678;13.314;2023-04-24T00:45:12;10.01;93.21
68804;SHT31;55787;52.678;13.314;2023-04-24T00:47:38;9.91;93.51
68804;SHT31;55787;52.678;13.314;2023-04-24T00:50:06;9.87;93.72
68804;SHT31;55787;52.678;13.314;2023-04-24T00:52:33;9.95;93.80
68804;SHT31;55787;52.678;13.314;2023-04-24T00:55:00;9.95;93.63
68804;SHT31;55787;52.678;13.314;2023-04-24T00:57:27;9.93;93.76
68804;SHT31;55787;52.678;13.314;2023-04-24T00:59:54;9.87;93.75
68804;SHT31;55787;52.678;13.314;2023-04-24T01:02:21;9.89;94.29
68804;SHT31;55787;52.678;13.314;2023-04-24T01:04:50;10.00;94.13
68804;SHT31;55787;52.678;13.314;2023-04-24T01:07:21;10.21;93.89
68804;SHT31;55787;52.678;13.314;2023-04-24T01:09:48;10.13;93.69
68804;SHT31;55787;52.678;13.314;2023-04-24T01:12:18;10.17;93.62
68804;SHT31;55787;52.678;13.314;2023-04-24T01:14:45;10.21;93.64
68804;SHT31;55787;52.678;13.314;2023-04-24T01:17:12;10.30;93.72
68804;SHT31;55787;52.678;13.314;2023-04-24T01:19:39;10.32;93.42
68804;SHT31;55787;52.678;13.314;2023-04-24T01:22:11;10.28;93.45
68804;SHT31;55787;52.678;13.314;2023-04-24T01:24:39;10.22;93.65
68804;SHT31;55787;52.678;13.314;2023-04-24T01:27:06;10.24;93.54
68804;SHT31;55787;52.678;13.314;2023-04-24T01:29:34;10.18;93.61
68804;SHT31;55787;52.678;13.314;2023-04-24T01:32:02;10.24;93.56
68804;SHT31;55787;52.678;13.314;2023-04-24T01:34:30;10.21;93.47
68804;SHT31;55787;52.678;13.314;2023-04-24T01:36:56;10.40;92.85
68804;SHT31;55787;52.678;13.314;2023-04-24T01:39:23;10.40;93.04
68804;SHT31;55787;52.678;13.314;2023-04-24T01:41:52;10.44;93.15
68804;SHT31;55787;52.678;13.314;2023-04-24T01:44:20;10.42;93.54
68804;SHT31;55787;52.678;13.314;2023-04-24T01:46:47;10.37;94.58
68804;SHT31;55787;52.678;13.314;2023-04-24T01:49:14;10.35;94.35
68804;SHT31;55787;52.678;13.314;2023-04-24T01:51:41;10.35;94.48
68804;SHT31;55787;52.678;13.314;2023-04-24T01:54:07;10.45;94.63
68804;SHT31;55787;52.678;13.314;2023-04-24T01:56:34;10.40;94.96
68804;SHT31;55787;52.678;13.314;2023-04-24T01:59:03;10.35;95.35
68804;SHT31;55787;52.678;13.314;2023-04-24T02:01:35;10.32;95.92
68804;SHT31;55787;52.678;13.314;2023-04-24T02:04:05;10.24;96.08
68804;SHT31;55787;52.678;13.314;2023-04-24T02:06:33;10.21;96.90
68804;SHT31;55787;52.678;13.314;2023-04-24T02:09:00;10.20;96.85
68804;SHT31;55787;52.678;13.314;2023-04-24T02:11:26;10.28;96.46
68804;SHT31;55787;52.678;13.314;2023-04-24T02:13:53;10.18;96.38
68804;SHT31;55787;52.678;13.314;2023-04-24T02:16:20;10.14;96.72
68804;SHT31;55787;52.678;13.314;2023-04-24T02:18:47;10.08;96.96
68804;SHT31;55787;52.678;13.314;2023-04-24T02:21:14;10.03;97.10
68804;SHT31;55787;52.678;13.314;2023-04-24T02:23:41;9.98;97.19
68804;SHT31;55787;52.678;13.314;2023-04-24T02:26:07;9.94;97.36
68804;SHT31;55787;52.678;13.314;2023-04-24T02:28:34;9.95;97.47
68804;SHT31;55787;52.678;13.314;2023-04-24T02:31:01;9.97;97.47
68804;SHT31;55787;52.678;13.314;2023-04-24T02:33:27;9.93;97.59
68804;SHT31;55787;52.678;13.314;2023-04-24T02:35:54;9.86;97.55
68804;SHT31;55787;52.678;13.314;2023-04-24T02:38:21;9.76;97.64
68804;SHT31;55787;52.678;13.314;2023-04-24T02:40:47;9.70;97.79
68804;SHT31;55787;52.678;13.314;2023-04-24T02:43:14;9.63;98.13
68804;SHT31;55787;52.678;13.314;2023-04-24T02:45:41;9.59;98.21
68804;SHT31;55787;52.678;13.314;2023-04-24T02:48:07;9.56;98.36
68804;SHT31;55787;52.678;13.314;2023-04-24T02:50:34;9.52;98.46
68804;SHT31;55787;52.678;13.314;2023-04-24T02:53:01;9.70;98.48
68804;SHT31;55787;52.678;13.314;2023-04-24T02:55:27;9.70;98.68
68804;SHT31;55787;52.678;13.314;2023-04-24T02:57:54;9.73;98.53
68804;SHT31;55787;52.678;13.314;2023-04-24T03:00:21;9.66;98.41
68804;SHT31;55787;52.678;13.314;2023-04-24T03:02:47;9.64;98.64
68804;SHT31;55787;52.678;13.314;2023-04-24T03:05:16;9.64;98.68
68804;SHT31;55787;52.678;13.314;2023-04-24T03:07:42;9.69;99.03
68804;SHT31;55787;52.678;13.314;2023-04-24T03:10:09;9.70;98.91
68804;SHT31;55787;52.678;13.314;2023-04-24T03:12:36;9.72;98.99
68804;SHT31;55787;52.678;13.314;2023-04-24T03:15:03;9.72;98.89
68804;SHT31;55787;52.678;13.314;2023-04-24T03:17:29;9.76;98.92
68804;SHT31;55787;52.678;13.314;2023-04-24T03:19:56;9.76;98.98
68804;SHT31;55787;52.678;13.314;2023-04-24T03:22:23;9.77;99.05
68804;SHT31;55787;52.678;13.314;2023-04-24T03:24:49;9.79;98.91
68804;SHT31;55787;52.678;13.314;2023-04-24T03:27:16;9.77;98.97
68804;SHT31;55787;52.678;13.314;2023-04-24T03:29:43;9.79;98.93
68804;SHT31;55787;52.678;13.314;2023-04-24T03:32:09;9.83;98.94
68804;SHT31;55787;52.678;13.314;2023-04-24T03:34:36;9.83;98.93
68804;SHT31;55787;52.678;13.314;2023-04-24T03:37:03;9.86;98.94
68804;SHT31;55787;52.678;13.314;2023-04-24T03:39:29;9.89;98.88
68804;SHT31;55787;52.678;13.314;2023-04-24T03:41:56;9.90;98.83
68804;SHT31;55787;52.678;13.314;2023-04-24T03:44:22;9.89;98.78
68804;SHT31;55787;52.678;13.314;2023-04-24T03:46:49;9.93;98.75
68804;SHT31;55787;52.678;13.314;2023-04-24T03:49:15;9.93;98.82
68804;SHT31;55787;52.678;13.314;2023-04-24T03:51:42;9.98;99.24
68804;SHT31;55787;52.678;13.314;2023-04-24T03:54:09;9.97;98.91
68804;SHT31;55787;52.678;13.314;2023-04-24T03:56:35;10.01;98.96
68804;SHT31;55787;52.678;13.314;2023-04-24T03:59:02;10.04;99.25
68804;SHT31;55787;52.678;13.314;2023-04-24T04:01:28;10.01;99.19
68804;SHT31;55787;52.678;13.314;2023-04-24T04:03:55;9.98;99.19
68804;SHT31;55787;52.678;13.314;2023-04-24T04:06:22;9.95;99.26
68804;SHT31;55787;52.678;13.314;2023-04-24T04:08:48;9.97;99.53
68804;SHT31;55787;52.678;13.314;2023-04-24T04:11:15;10.00;99.70
68804;SHT31;55787;52.678;13.314;2023-04-24T04:13:41;10.05;99.66
68804;SHT31;55787;52.678;13.314;2023-04-24T04:16:08;10.07;99.63
68804;SHT31;55787;52.678;13.314;2023-04-24T04:18:35;10.04;99.64
68804;SHT31;55787;52.678;13.314;2023-04-24T04:21:02;10.05;99.80
68804;SHT31;55787;52.678;13.314;2023-04-24T04:23:28;10.04;99.69
68804;SHT31;55787;52.678;13.314;2023-04-24T04:25:55;10.05;99.65
68804;SHT31;55787;52.678;13.314;2023-04-24T04:28:21;10.01;99.63
68804;SHT31;55787;52.678;13.314;2023-04-24T04:30:48;9.98;99.79
68804;SHT31;55787;52.678;13.314;2023-04-24T04:33:15;10.01;99.72
68804;SHT31;55787;52.678;13.314;2023-04-24T04:35:42;9.98;99.69
68804;SHT31;55787;52.678;13.314;2023-04-24T04:38:09;9.97;99.82
68804;SHT31;55787;52.678;13.314;2023-04-24T04:40:37;9.91;99.71
68804;SHT31;55787;52.678;13.314;2023-04-24T04:43:04;9.90;99.77
68804;SHT31;55787;52.678;13.314;2023-04-24T04:45:31;9.89;99.74
68804;SHT31;55787;52.678;13.314;2023-04-24T04:47:59;9.87;99.78
68804;SHT31;55787;52.678;13.314;2023-04-24T04:50:27;9.87;99.81
68804;SHT31;55787;52.678;13.314;2023-04-24T04:52:54;9.89;99.78
68804;SHT31;55787;52.678;13.314;2023-04-24T04:55:21;9.90;99.86
68804;SHT31;55787;52.678;13.314;2023-04-24T04:57:47;9.95;99.90
68804;SHT31;55787;52.678;13.314;2023-04-24T05:00:14;10.07;99.99
68804;SHT31;55787;52.678;13.314;2023-04-24T05:02:42;10.15;99.99
68804;SHT31;55787;52.678;13.314;2023-04-24T05:05:09;10.22;99.99
68804;SHT31;55787;52.678;13.314;2023-04-24T05:07:36;10.32;99.96
68804;SHT31;55787;52.678;13.314;2023-04-24T05:10:03;10.42;99.87
68804;SHT31;55787;52.678;13.314;2023-04-24T05:12:29;10.45;99.71
68804;SHT31;55787;52.678;13.314;2023-04-24T05:14:56;10.51;99.73
68804;SHT31;55787;52.678;13.314;2023-04-24T05:17:22;10.65;99.99
68804;SHT31;55787;52.678;13.314;2023-04-24T05:19:49;10.72;99.25
68804;SHT31;55787;52.678;13.314;2023-04-24T05:22:16;10.79;98.98
68804;SHT31;55787;52.678;13.314;2023-04-24T05:24:44;10.88;98.83
68804;SHT31;55787;52.678;13.314;2023-04-24T05:27:11;11.00;98.80
68804;SHT31;55787;52.678;13.314;2023-04-24T05:29:38;11.17;98.33
68804;SHT31;55787;52.678;13.314;2023-04-24T05:32:04;11.28;97.89
68804;SHT31;55787;52.678;13.314;2023-04-24T05:34:31;11.37;96.53
68804;SHT31;55787;52.678;13.314;2023-04-24T05:36:58;11.43;95.51
68804;SHT31;55787;52.678;13.314;2023-04-24T05:39:24;11.51;95.21
68804;SHT31;55787;52.678;13.314;2023-04-24T05:41:51;11.65;94.38
68804;SHT31;55787;52.678;13.314;2023-04-24T05:44:18;11.95;94.05
68804;SHT31;55787;52.678;13.314;2023-04-24T05:46:44;12.39;92.35
68804;SHT31;55787;52.678;13.314;2023-04-24T05:49:11;12.63;89.59
68804;SHT31;55787;52.678;13.314;2023-04-24T05:51:37;13.22;87.05
68804;SHT31;55787;52.678;13.314;2023-04-24T05:54:05;14.24;85.49
68804;SHT31;55787;52.678;13.314;2023-04-24T05:56:32;15.22;82.67
68804;SHT31;55787;52.678;13.314;2023-04-24T05:58:59;15.80;76.28
68804;SHT31;55787;52.678;13.314;2023-04-24T06:01:25;16.04;77.04
68804;SHT31;55787;52.678;13.314;2023-04-24T06:03:52;16.05;77.06
68804;SHT31;55787;52.678;13.314;2023-04-24T06:06:20;15.94;76.60
68804;SHT31;55787;52.678;13.314;2023-04-24T06:08:46;16.73;73.84
68804;SHT31;55787;52.678;13.314;2023-04-24T06:11:13;16.62;73.97
68804;SHT31;55787;52.678;13.314;2023-04-24T06:13:39;16.55;72.72
68804;SHT31;55787;52.678;13.314;2023-04-24T06:16:06;16.88;72.82
68804;SHT31;55787;52.678;13.314;2023-04-24T06:18:33;16.30;73.21
68804;SHT31;55787;52.678;13.314;2023-04-24T06:21:00;15.39;76.11
68804;SHT31;55787;52.678;13.314;2023-04-24T06:23:26;16.09;73.67
68804;SHT31;55787;52.678;13.314;2023-04-24T06:25:53;17.36;71.13
68804;SHT31;55787;52.678;13.314;2023-04-24T06:28:20;18.09;70.14
68804;SHT31;55787;52.678;13.314;2023-04-24T06:30:46;18.13;65.37
68804;SHT31;55787;52.678;13.314;2023-04-24T06:33:13;18.60;64.49
68804;SHT31;55787;52.678;13.314;2023-04-24T06:35:47;18.76;64.37
68804;SHT31;55787;52.678;13.314;2023-04-24T06:38:14;20.45;59.77
68804;SHT31;55787;52.678;13.314;2023-04-24T06:40:42;20.65;58.79
68804;SHT31;55787;52.678;13.314;2023-04-24T06:43:11;21.48;58.13
68804;SHT31;55787;52.678;13.314;2023-04-24T06:45:38;21.66;54.36
68804;SHT31;55787;52.678;13.314;2023-04-24T06:48:06;21.26;54.19
68804;SHT31;55787;52.678;13.314;2023-04-24T06:50:33;21.32;53.01
68804;SHT31;55787;52.678;13.314;2023-04-24T06:52:59;20.62;54.26
68804;SHT31;55787;52.678;13.314;2023-04-24T06:55:26;19.73;60.47
68804;SHT31;55787;52.678;13.314;2023-04-24T06:57:52;18.47;59.48
68804;SHT31;55787;52.678;13.314;2023-04-24T07:00:19;18.13;61.29
68804;SHT31;55787;52.678;13.314;2023-04-24T07:02:46;19.59;57.50
68804;SHT31;55787;52.678;13.314;2023-04-24T07:05:13;21.34;53.93
68804;SHT31;55787;52.678;13.314;2023-04-24T07:07:41;20.31;54.91
68804;SHT31;55787;52.678;13.314;2023-04-24T07:10:09;19.75;56.20
68804;SHT31;55787;52.678;13.314;2023-04-24T07:12:37;17.25;62.48
68804;SHT31;55787;52.678;13.314;2023-04-24T07:15:05;18.20;60.82
68804;SHT31;55787;52.678;13.314;2023-04-24T07:17:32;17.48;62.77
68804;SHT31;55787;52.678;13.314;2023-04-24T07:19:58;18.99;56.88
68804;SHT31;55787;52.678;13.314;2023-04-24T07:22:25;20.70;54.95
68804;SHT31;55787;52.678;13.314;2023-04-24T07:24:52;20.86;52.38
68804;SHT31;55787;52.678;13.314;2023-04-24T07:27:18;21.04;53.24
68804;SHT31;55787;52.678;13.314;2023-04-24T07:29:45;21.58;49.49
68804;SHT31;55787;52.678;13.314;2023-04-24T07:32:12;21.15;50.38
68804;SHT31;55787;52.678;13.314;2023-04-24T07:34:38;21.95;52.21
68804;SHT31;55787;52.678;13.314;2023-04-24T07:37:05;23.30;46.41
68804;SHT31;55787;52.678;13.314;2023-04-24T07:39:32;21.54;48.66
68804;SHT31;55787;52.678;13.314;2023-04-24T07:41:58;22.53;46.71
68804;SHT31;55787;52.678;13.314;2023-04-24T07:44:25;24.25;44.31
68804;SHT31;55787;52.678;13.314;2023-04-24T07:46:52;22.36;46.88
68804;SHT31;55787;52.678;13.314;2023-04-24T07:49:19;20.45;51.77
68804;SHT31;55787;52.678;13.314;2023-04-24T07:51:47;21.37;51.42
68804;SHT31;55787;52.678;13.314;2023-04-24T07:54:13;21.40;48.53
68804;SHT31;55787;52.678;13.314;2023-04-24T07:56:41;23.79;45.50
68804;SHT31;55787;52.678;13.314;2023-04-24T07:59:10;24.78;43.46
68804;SHT31;55787;52.678;13.314;2023-04-24T08:01:37;24.39;41.22
68804;SHT31;55787;52.678;13.314;2023-04-24T08:04:04;21.88;45.92
68804;SHT31;55787;52.678;13.314;2023-04-24T08:06:31;22.68;45.54
68804;SHT31;55787;52.678;13.314;2023-04-24T08:08:59;21.98;48.17
68804;SHT31;55787;52.678;13.314;2023-04-24T08:11:26;22.37;45.60
68804;SHT31;55787;52.678;13.314;2023-04-24T08:13:53;23.19;45.06
68804;SHT31;55787;52.678;13.314;2023-04-24T08:16:21;22.41;44.11
68804;SHT31;55787;52.678;13.314;2023-04-24T08:18:48;21.26;45.60
68804;SHT31;55787;52.678;13.314;2023-04-24T08:21:14;22.30;46.02
68804;SHT31;55787;52.678;13.314;2023-04-24T08:23:43;23.33;43.02
68804;SHT31;55787;52.678;13.314;2023-04-24T08:26:10;24.20;41.60
68804;SHT31;55787;52.678;13.314;2023-04-24T08:28:37;23.22;43.62
68804;SHT31;55787;52.678;13.314;2023-04-24T08:31:04;22.84;44.09
68804;SHT31;55787;52.678;13.314;2023-04-24T08:33:31;22.63;41.41
68804;SHT31;55787;52.678;13.314;2023-04-24T08:36:03;23.76;39.67
68804;SHT31;55787;52.678;13.314;2023-04-24T08:38:30;22.72;42.40
68804;SHT31;55787;52.678;13.314;2023-04-24T08:40:58;21.75;43.96
68804;SHT31;55787;52.678;13.314;2023-04-24T08:43:26;21.52;47.83
68804;SHT31;55787;52.678;13.314;2023-04-24T08:45:56;20.73;47.00
68804;SHT31;55787;52.678;13.314;2023-04-24T08:48:24;20.91;48.30
68804;SHT31;55787;52.678;13.314;2023-04-24T08:50:59;19.33;49.43
68804;SHT31;55787;52.678;13.314;2023-04-24T08:53:26;20.42;47.39
68804;SHT31;55787;52.678;13.314;2023-04-24T08:55:55;20.63;49.39
68804;SHT31;55787;52.678;13.314;2023-04-24T08:58:25;20.89;47.78
68804;SHT31;55787;52.678;13.314;2023-04-24T09:00:54;19.85;49.99
68804;SHT31;55787;52.678;13.314;2023-04-24T09:03:21;19.95;50.30
68804;SHT31;55787;52.678;13.314;2023-04-24T09:05:49;19.82;50.79
68804;SHT31;55787;52.678;13.314;2023-04-24T09:08:18;20.83;49.03
68804;SHT31;55787;52.678;13.314;2023-04-24T09:10:45;20.87;47.76
68804;SHT31;55787;52.678;13.314;2023-04-24T09:13:15;20.89;48.45
68804;SHT31;55787;52.678;13.314;2023-04-24T09:15:42;20.48;48.35
68804;SHT31;55787;52.678;13.314;2023-04-24T09:18:09;19.18;51.84
68804;SHT31;55787;52.678;13.314;2023-04-24T09:20:59;18.88;52.61
68804;SHT31;55787;52.678;13.314;2023-04-24T09:23:30;18.61;52.40
68804;SHT31;55787;52.678;13.314;2023-04-24T09:25:58;18.26;54.14
68804;SHT31;55787;52.678;13.314;2023-04-24T09:28:30;18.85;53.15
68804;SHT31;55787;52.678;13.314;2023-04-24T09:33:31;17.80;54.35
68804;SHT31;55787;52.678;13.314;2023-04-24T09:35:58;18.71;54.86
68804;SHT31;55787;52.678;13.314;2023-04-24T09:38:38;18.98;52.55
68804;SHT31;55787;52.678;13.314;2023-04-24T09:41:07;18.57;53.10
68804;SHT31;55787;52.678;13.314;2023-04-24T09:43:34;19.91;50.48
68804;SHT31;55787;52.678;13.314;2023-04-24T09:46:06;19.46;50.76
68804;SHT31;55787;52.678;13.314;2023-04-24T09:48:35;18.01;55.44
68804;SHT31;55787;52.678;13.314;2023-04-24T09:51:04;18.23;54.77
68804;SHT31;55787;52.678;13.314;2023-04-24T09:53:33;17.78;56.10
68804;SHT31;55787;52.678;13.314;2023-04-24T09:56:10;17.56;57.10
68804;SHT31;55787;52.678;13.314;2023-04-24T09:58:38;17.12;57.61
68804;SHT31;55787;52.678;13.314;2023-04-24T10:01:05;17.30;59.15
68804;SHT31;55787;52.678;13.314;2023-04-24T10:03:33;17.03;58.31
68804;SHT31;55787;52.678;13.314;2023-04-24T10:06:03;16.53;60.16
68804;SHT31;55787;52.678;13.314;2023-04-24T10:08:36;16.85;60.12
68804;SHT31;55787;52.678;13.314;2023-04-24T10:11:04;17.08;59.29
68804;SHT31;55787;52.678;13.314;2023-04-24T10:13:31;18.11;59.56
68804;SHT31;55787;52.678;13.314;2023-04-24T10:15:59;18.17;55.95
68804;SHT31;55787;52.678;13.314;2023-04-24T10:18:27;17.90;58.05
68804;SHT31;55787;52.678;13.314;2023-04-24T10:20:54;17.39;58.77
68804;SHT31;55787;52.678;13.314;2023-04-24T10:23:21;17.25;58.68
68804;SHT31;55787;52.678;13.314;2023-04-24T10:25:50;17.00;59.54
68804;SHT31;55787;52.678;13.314;2023-04-24T10:28:18;17.14;60.23
68804;SHT31;55787;52.678;13.314;2023-04-24T10:30:45;17.35;59.89
68804;SHT31;55787;52.678;13.314;2023-04-24T10:33:12;17.48;58.88
68804;SHT31;55787;52.678;13.314;2023-04-24T10:35:42;17.36;60.89
68804;SHT31;55787;52.678;13.314;2023-04-24T10:38:14;17.72;59.82
68804;SHT31;55787;52.678;13.314;2023-04-24T10:40:42;17.53;58.76
68804;SHT31;55787;52.678;13.314;2023-04-24T10:43:10;17.69;59.35
68804;SHT31;55787;52.678;13.314;2023-04-24T10:45:38;17.58;58.79
68804;SHT31;55787;52.678;13.314;2023-04-24T10:48:07;17.43;59.92
68804;SHT31;55787;52.678;13.314;2023-04-24T10:50:51;17.31;59.07
68804;SHT31;55787;52.678;13.314;2023-04-24T10:53:23;17.14;59.96
68804;SHT31;55787;52.678;13.314;2023-04-24T10:56:07;17.32;59.33
68804;SHT31;55787;52.678;13.314;2023-04-24T10:58:43;18.65;55.96
68804;SHT31;55787;52.678;13.314;2023-04-24T11:01:28;19.01;54.79
68804;SHT31;55787;52.678;13.314;2023-04-24T11:03:58;19.02;55.63
68804;SHT31;55787;52.678;13.314;2023-04-24T11:06:30;18.33;56.42
68804;SHT31;55787;52.678;13.314;2023-04-24T11:09:03;18.31;58.04
68804;SHT31;55787;52.678;13.314;2023-04-24T11:11:32;18.01;57.72
68804;SHT31;55787;52.678;13.314;2023-04-24T11:19:10;18.76;54.85
68804;SHT31;55787;52.678;13.314;2023-04-24T11:22:00;17.55;56.69
68804;SHT31;55787;52.678;13.314;2023-04-24T11:24:32;17.86;56.56
68804;SHT31;55787;52.678;13.314;2023-04-24T11:27:17;17.76;57.02
68804;SHT31;55787;52.678;13.314;2023-04-24T11:37:33;18.88;52.38
68804;SHT31;55787;52.678;13.314;2023-04-24T11:40:00;21.11;50.82
68804;SHT31;55787;52.678;13.314;2023-04-24T11:42:28;21.90;44.27
68804;SHT31;55787;52.678;13.314;2023-04-24T11:44:59;22.57;42.48
68804;SHT31;55787;52.678;13.314;2023-04-24T11:47:32;21.45;43.50
68804;SHT31;55787;52.678;13.314;2023-04-24T11:50:00;22.60;43.51
68804;SHT31;55787;52.678;13.314;2023-04-24T11:52:31;22.36;43.17
68804;SHT31;55787;52.678;13.314;2023-04-24T11:54:59;21.10;46.47
68804;SHT31;55787;52.678;13.314;2023-04-24T11:57:26;23.15;43.82
68804;SHT31;55787;52.678;13.314;2023-04-24T11:59:55;22.98;43.25
68804;SHT31;55787;52.678;13.314;2023-04-24T12:02:26;24.14;43.08
68804;SHT31;55787;52.678;13.314;2023-04-24T12:04:54;25.64;40.33
68804;SHT31;55787;52.678;13.314;2023-04-24T12:07:22;24.21;40.67
68804;SHT31;55787;52.678;13.314;2023-04-24T12:09:59;19.60;48.34
68804;SHT31;55787;52.678;13.314;2023-04-24T12:12:27;19.23;50.99
68804;SHT31;55787;52.678;13.314;2023-04-24T12:14:58;18.69;52.85
68804;SHT31;55787;52.678;13.314;2023-04-24T12:17:29;19.02;54.00
68804;SHT31;55787;52.678;13.314;2023-04-24T12:19:59;18.78;53.50
68804;SHT31;55787;52.678;13.314;2023-04-24T12:22:26;18.61;53.72
68804;SHT31;55787;52.678;13.314;2023-04-24T12:25:01;17.58;55.72
68804;SHT31;55787;52.678;13.314;2023-04-24T12:27:30;16.90;58.18
68804;SHT31;55787;52.678;13.314;2023-04-24T12:29:59;17.15;58.64
68804;SHT31;55787;52.678;13.314;2023-04-24T12:32:26;17.56;57.92
68804;SHT31;55787;52.678;13.314;2023-04-24T12:34:54;17.90;57.46
68804;SHT31;55787;52.678;13.314;2023-04-24T12:37:25;17.18;59.41
68804;SHT31;55787;52.678;13.314;2023-04-24T12:39:59;17.55;59.62
68804;SHT31;55787;52.678;13.314;2023-04-24T12:42:28;17.58;59.92
68804;SHT31;55787;52.678;13.314;2023-04-24T12:45:00;17.41;60.82
68804;SHT31;55787;52.678;13.314;2023-04-24T12:47:28;17.38;60.60
68804;SHT31;55787;52.678;13.314;2023-04-24T12:49:54;19.24;56.54
68804;SHT31;55787;52.678;13.314;2023-04-24T12:52:22;21.44;48.90
68804;SHT31;55787;52.678;13.314;2023-04-24T12:54:50;22.21;45.11
68804;SHT31;55787;52.678;13.314;2023-04-24T12:57:19;20.93;46.30
68804;SHT31;55787;52.678;13.314;2023-04-24T12:59:46;20.18;49.74
68804;SHT31;55787;52.678;13.314;2023-04-24T13:02:12;19.90;50.03
68804;SHT31;55787;52.678;13.314;2023-04-24T13:04:39;19.45;52.05
68804;SHT31;55787;52.678;13.314;2023-04-24T13:07:06;18.98;55.77
68804;SHT31;55787;52.678;13.314;2023-04-24T13:09:34;19.06;56.00
68804;SHT31;55787;52.678;13.314;2023-04-24T13:12:01;19.19;56.71
68804;SHT31;55787;52.678;13.314;2023-04-24T13:14:27;18.94;55.51
68804;SHT31;55787;52.678;13.314;2023-04-24T13:16:54;19.23;57.31
68804;SHT31;55787;52.678;13.314;2023-04-24T13:19:21;19.24;56.43
68804;SHT31;55787;52.678;13.314;2023-04-24T13:21:47;18.99;58.04
68804;SHT31;55787;52.678;13.314;2023-04-24T13:24:14;18.69;57.81
68804;SHT31;55787;52.678;13.314;2023-04-24T13:26:42;18.31;60.07
68804;SHT31;55787;52.678;13.314;2023-04-24T13:29:08;17.48;58.65
68804;SHT31;55787;52.678;13.314;2023-04-24T13:31:35;18.01;57.24
68804;SHT31;55787;52.678;13.314;2023-04-24T13:34:03;19.02;55.04
68804;SHT31;55787;52.678;13.314;2023-04-24T13:36:30;20.04;53.96
68804;SHT31;55787;52.678;13.314;2023-04-24T13:38:56;20.97;52.85
68804;SHT31;55787;52.678;13.314;2023-04-24T13:41:23;21.44;50.24
68804;SHT31;55787;52.678;13.314;2023-04-24T13:43:49;21.72;48.59
68804;SHT31;55787;52.678;13.314;2023-04-24T13:46:17;21.61;49.48
68804;SHT31;55787;52.678;13.314;2023-04-24T13:48:44;21.75;49.17
68804;SHT31;55787;52.678;13.314;2023-04-24T13:51:10;21.72;48.71
68804;SHT31;55787;52.678;13.314;2023-04-24T13:53:37;21.12;46.80
68804;SHT31;55787;52.678;13.314;2023-04-24T13:56:05;19.74;50.42
68804;SHT31;55787;52.678;13.314;2023-04-24T13:58:32;19.87;46.80
68804;SHT31;55787;52.678;13.314;2023-04-24T14:00:58;19.67;46.71
68804;SHT31;55787;52.678;13.314;2023-04-24T14:03:25;18.71;47.37
68804;SHT31;55787;52.678;13.314;2023-04-24T14:05:52;18.47;48.37
68804;SHT31;55787;52.678;13.314;2023-04-24T14:08:18;18.62;49.18
68804;SHT31;55787;52.678;13.314;2023-04-24T14:10:45;18.10;48.04
68804;SHT31;55787;52.678;13.314;2023-04-24T14:13:12;17.80;49.67
68804;SHT31;55787;52.678;13.314;2023-04-24T14:15:39;17.71;51.39
68804;SHT31;55787;52.678;13.314;2023-04-24T14:18:05;18.03;53.03
68804;SHT31;55787;52.678;13.314;2023-04-24T14:20:32;18.33;51.60
68804;SHT31;55787;52.678;13.314;2023-04-24T14:22:58;18.03;50.44
68804;SHT31;55787;52.678;13.314;2023-04-24T14:25:25;18.41;49.61
68804;SHT31;55787;52.678;13.314;2023-04-24T14:27:52;18.92;49.45
68804;SHT31;55787;52.678;13.314;2023-04-24T14:30:18;18.76;40.75
68804;SHT31;55787;52.678;13.314;2023-04-24T14:32:45;18.16;42.88
68804;SHT31;55787;52.678;13.314;2023-04-24T14:35:12;18.40;42.07
68804;SHT31;55787;52.678;13.314;2023-04-24T14:37:41;18.68;41.77
68804;SHT31;55787;52.678;13.314;2023-04-24T14:40:08;19.34;42.13
68804;SHT31;55787;52.678;13.314;2023-04-24T14:42:55;19.45;40.04
68804;SHT31;55787;52.678;13.314;2023-04-24T14:45:25;19.33;40.96
68804;SHT31;55787;52.678;13.314;2023-04-24T14:47:51;19.18;39.88
68804;SHT31;55787;52.678;13.314;2023-04-24T14:50:18;18.27;42.02
68804;SHT31;55787;52.678;13.314;2023-04-24T14:52:48;18.24;41.02
68804;SHT31;55787;52.678;13.314;2023-04-24T14:55:15;18.68;41.16
68804;SHT31;55787;52.678;13.314;2023-04-24T14:57:42;18.44;40.36
68804;SHT31;55787;52.678;13.314;2023-04-24T15:00:09;18.68;40.86
68804;SHT31;55787;52.678;13.314;2023-04-24T15:02:36;18.43;40.90
68804;SHT31;55787;52.678;13.314;2023-04-24T15:05:06;18.40;41.60
68804;SHT31;55787;52.678;13.314;2023-04-24T15:07:34;17.75;42.65
68804;SHT31;55787;52.678;13.314;2023-04-24T15:10:02;17.76;42.63
68804;SHT31;55787;52.678;13.314;2023-04-24T15:12:29;17.38;43.29
68804;SHT31;55787;52.678;13.314;2023-04-24T15:14:57;17.41;44.28
68804;SHT31;55787;52.678;13.314;2023-04-24T15:17:24;17.35;44.73
68804;SHT31;55787;52.678;13.314;2023-04-24T15:19:50;17.32;43.55
68804;SHT31;55787;52.678;13.314;2023-04-24T15:22:17;17.49;43.84
68804;SHT31;55787;52.678;13.314;2023-04-24T15:24:44;17.49;44.02
68804;SHT31;55787;52.678;13.314;2023-04-24T15:27:10;17.21;43.81
68804;SHT31;55787;52.678;13.314;2023-04-24T15:29:37;17.20;45.23
68804;SHT31;55787;52.678;13.314;2023-04-24T15:32:04;16.38;45.27
68804;SHT31;55787;52.678;13.314;2023-04-24T15:34:33;16.33;45.44
68804;SHT31;55787;52.678;13.314;2023-04-24T15:37:00;16.34;46.72